createdAt,value
2019-02-23T00:00:05.126Z,8.60
2019-02-23T00:06:09.666Z,8.70
2019-02-23T00:12:13.989Z,8.60
2019-02-23T00:18:18.264Z,8.50
2019-02-23T00:24:22.506Z,8.40
2019-02-23T00:30:26.724Z,8.30
2019-02-23T00:36:31.068Z,8.30
2019-02-23T00:42:35.273Z,8.20
2019-02-23T00:48:39.685Z,8.10
2019-02-23T00:54:43.950Z,8.00
2019-02-23T01:00:48.184Z,8.00
2019-02-23T01:06:52.405Z,7.90
2019-02-23T01:12:56.642Z,7.80
2019-02-23T01:19:00.949Z,7.80
2019-02-23T01:25:05.614Z,7.70
2019-02-23T01:31:10.069Z,7.70
2019-02-23T01:37:14.317Z,7.60
2019-02-23T01:43:18.691Z,7.50
2019-02-23T01:49:22.981Z,7.40
2019-02-23T01:55:27.204Z,7.40
2019-02-23T02:01:31.522Z,7.40
2019-02-23T02:07:35.723Z,7.40
2019-02-23T02:13:40.028Z,7.40
2019-02-23T02:19:44.303Z,7.40
2019-02-23T02:25:48.493Z,7.30
2019-02-23T02:31:53.027Z,7.30
2019-02-23T02:37:57.232Z,7.20
2019-02-23T02:44:01.555Z,7.10
2019-02-23T02:50:06.610Z,7.10
2019-02-23T02:56:10.998Z,7.00
2019-02-23T03:02:15.305Z,7.00
2019-02-23T03:08:19.562Z,6.90
2019-02-23T03:14:23.774Z,6.90
2019-02-23T03:20:36.209Z,6.90
2019-02-23T03:26:34.193Z,6.90
2019-02-23T03:32:38.430Z,6.80
2019-02-23T03:38:42.736Z,6.70
2019-02-23T03:44:47.015Z,6.60
2019-02-23T03:50:51.292Z,6.50
2019-02-23T03:56:55.581Z,6.40
2019-02-23T04:02:59.864Z,6.40
2019-02-23T04:09:04.617Z,6.30
2019-02-23T04:15:09.024Z,6.30
2019-02-23T04:21:13.227Z,6.30
2019-02-23T04:27:17.424Z,6.20
2019-02-23T04:33:21.731Z,6.20
2019-02-23T04:39:25.994Z,6.20
2019-02-23T04:45:30.207Z,6.10
2019-02-23T04:51:34.513Z,6.00
2019-02-23T04:57:38.787Z,5.90
2019-02-23T05:03:43.084Z,5.80
2019-02-23T05:09:47.366Z,5.70
2019-02-23T05:15:51.737Z,5.70
2019-02-23T05:21:58.977Z,5.70
2019-02-23T05:28:03.175Z,5.60
2019-02-23T05:34:07.405Z,5.60
2019-02-23T05:40:11.643Z,5.60
2019-02-23T05:46:15.936Z,5.50
2019-02-23T05:52:20.230Z,5.50
2019-02-23T05:58:24.469Z,5.50
2019-02-23T06:04:29.131Z,5.40
2019-02-23T06:10:33.407Z,5.40
2019-02-23T06:16:37.866Z,5.30
2019-02-23T06:22:42.098Z,5.30
2019-02-23T06:28:47.387Z,5.20
2019-02-23T06:34:51.658Z,5.10
2019-02-23T06:40:55.870Z,5.10
2019-02-23T06:47:00.133Z,5.10
2019-02-23T06:53:04.366Z,5.10
2019-02-23T06:59:10.528Z,5.10
2019-02-23T07:05:14.966Z,5.10
2019-02-23T07:11:19.240Z,5.20
2019-02-23T07:17:23.564Z,5.30
2019-02-23T07:23:27.750Z,5.40
2019-02-23T07:29:32.039Z,5.60
2019-02-23T07:35:36.284Z,5.90
2019-02-23T07:41:40.627Z,6.20
2019-02-23T07:47:44.824Z,6.40
2019-02-23T07:53:49.156Z,6.60
2019-02-23T07:59:53.402Z,6.90
2019-02-23T08:05:57.804Z,7.10
2019-02-23T08:12:02.002Z,7.40
2019-02-23T08:18:06.295Z,7.70
2019-02-23T08:24:10.569Z,8.00
2019-02-23T08:30:14.867Z,8.20
2019-02-23T08:36:19.061Z,8.40
2019-02-23T08:42:23.275Z,8.70
2019-02-23T08:48:27.567Z,9.00
2019-02-23T08:54:31.873Z,9.20
2019-02-23T09:00:36.171Z,9.30
2019-02-23T09:06:40.402Z,9.40
2019-02-23T09:12:44.595Z,9.60
2019-02-23T09:18:48.957Z,9.70
2019-02-23T09:24:53.203Z,9.80
2019-02-23T09:30:57.523Z,9.90
2019-02-23T09:37:01.737Z,10.10
2019-02-23T09:43:06.083Z,10.20
2019-02-23T09:49:10.361Z,10.30
2019-02-23T09:55:14.625Z,10.50
2019-02-23T10:01:18.848Z,10.70
2019-02-23T10:07:23.174Z,10.80
2019-02-23T10:13:27.400Z,11.00
2019-02-23T10:19:31.730Z,11.00
2019-02-23T10:25:36.020Z,11.20
2019-02-23T10:31:40.334Z,11.40
2019-02-23T10:38:05.646Z,11.50
2019-02-23T10:44:09.948Z,11.50
2019-02-23T10:50:16.740Z,11.50
2019-02-23T10:56:20.971Z,11.60
2019-02-23T11:02:25.280Z,11.70
2019-02-23T11:08:29.484Z,11.80
2019-02-23T11:14:33.774Z,11.80
2019-02-23T11:20:38.064Z,11.80
2019-02-23T11:26:42.277Z,12.00
2019-02-23T11:32:46.650Z,12.00
2019-02-23T11:38:50.963Z,12.00
2019-02-23T11:44:55.173Z,12.10
2019-02-23T11:50:59.453Z,12.20
2019-02-23T11:57:03.754Z,12.30
2019-02-23T12:03:08.053Z,12.40
2019-02-23T12:09:12.300Z,12.50
2019-02-23T12:15:16.526Z,12.60
2019-02-23T12:21:20.812Z,12.60
2019-02-23T12:27:24.999Z,12.80
2019-02-23T12:33:29.347Z,12.90
2019-02-23T12:39:33.633Z,12.90
2019-02-23T12:45:37.913Z,12.90
2019-02-23T12:51:42.125Z,12.90
2019-02-23T12:57:46.427Z,13.00
2019-02-23T13:03:50.724Z,13.20
2019-02-23T13:09:55.884Z,13.30
2019-02-23T13:16:04.101Z,13.20
2019-02-23T13:22:35.306Z,13.40
2019-02-23T13:28:52.213Z,13.40
2019-02-23T13:35:30.059Z,13.50
2019-02-23T13:41:55.218Z,13.60
2019-02-23T13:48:36.239Z,13.60
2019-02-23T13:55:17.804Z,13.60
2019-02-23T14:01:45.268Z,13.60
2019-02-23T14:08:21.752Z,13.60
2019-02-23T14:15:06.181Z,13.70
2019-02-23T14:21:56.140Z,13.70
2019-02-23T14:28:08.759Z,13.70
2019-02-23T14:34:34.354Z,13.70
2019-02-23T14:41:09.089Z,13.90
2019-02-23T14:47:45.594Z,13.80
2019-02-23T14:54:04.758Z,13.80
2019-02-23T15:00:59.326Z,14.00
2019-02-23T15:07:42.068Z,13.90
2019-02-23T15:14:24.546Z,13.90
2019-02-23T15:21:04.890Z,13.90
2019-02-23T15:27:24.042Z,14.00
2019-02-23T15:34:09.627Z,13.90
2019-02-23T15:40:43.035Z,14.00
2019-02-23T15:47:42.799Z,14.00
2019-02-23T15:53:47.220Z,13.90
2019-02-23T15:59:51.710Z,13.90
2019-02-23T16:05:56.018Z,13.80
2019-02-23T16:12:00.434Z,13.80
2019-02-23T16:18:04.950Z,13.70
2019-02-23T16:24:09.204Z,13.70
2019-02-23T16:30:13.593Z,13.50
2019-02-23T16:36:17.827Z,13.40
2019-02-23T16:42:22.183Z,13.20
2019-02-23T16:48:26.549Z,13.10
2019-02-23T16:54:30.846Z,13.00
2019-02-23T17:00:35.169Z,12.90
2019-02-23T17:06:39.497Z,12.70
2019-02-23T17:12:43.795Z,12.50
2019-02-23T17:18:48.035Z,12.30
2019-02-23T17:24:52.292Z,12.10
2019-02-23T17:30:56.623Z,11.90
2019-02-23T17:37:00.983Z,11.60
2019-02-23T17:43:05.391Z,11.50
2019-02-23T17:49:09.726Z,11.40
2019-02-23T17:55:14.036Z,11.20
2019-02-23T18:01:18.320Z,11.10
2019-02-23T18:07:22.604Z,10.90
2019-02-23T18:13:26.866Z,10.90
2019-02-23T18:19:31.165Z,10.80
2019-02-23T18:25:35.476Z,10.70
2019-02-23T18:31:39.781Z,10.70
2019-02-23T18:37:44.042Z,10.60
2019-02-23T18:43:48.320Z,10.50
2019-02-23T18:49:53.445Z,10.40
2019-02-23T18:55:57.726Z,10.20
2019-02-23T19:02:02.058Z,10.00
2019-02-23T19:08:06.698Z,10.00
2019-02-23T19:14:10.960Z,10.00
2019-02-23T19:20:15.410Z,9.90
2019-02-23T19:26:19.621Z,9.80
2019-02-23T19:32:23.834Z,9.60
2019-02-23T19:38:28.009Z,9.60
2019-02-23T19:44:32.411Z,9.60
2019-02-23T19:50:40.155Z,9.40
2019-02-23T19:56:46.844Z,9.20
2019-02-23T20:02:50.425Z,9.00
2019-02-23T20:08:54.691Z,8.90
2019-02-23T20:14:58.887Z,8.80
2019-02-23T20:21:03.158Z,8.60
2019-02-23T20:27:07.492Z,8.70
2019-02-23T20:33:11.739Z,8.70
2019-02-23T20:39:15.947Z,8.60
2019-02-23T20:45:20.134Z,8.60
2019-02-23T20:51:24.427Z,8.50
2019-02-23T20:57:28.631Z,8.30
2019-02-23T21:03:32.801Z,8.20
2019-02-23T21:09:37.124Z,8.20
2019-02-23T21:15:41.325Z,8.20
2019-02-23T21:21:45.746Z,8.10
2019-02-23T21:27:50.026Z,7.90
2019-02-23T21:33:54.320Z,7.90
2019-02-23T21:39:58.560Z,7.80
2019-02-23T21:46:02.804Z,7.70
2019-02-23T21:52:07.008Z,7.70
2019-02-23T21:58:11.477Z,7.80
2019-02-23T22:04:15.641Z,7.80
2019-02-23T22:10:20.008Z,7.50
2019-02-23T22:16:24.312Z,7.20
2019-02-23T22:22:28.604Z,7.50
2019-02-23T22:28:32.913Z,7.30
2019-02-23T22:34:37.164Z,7.20
2019-02-23T22:40:41.458Z,7.20
2019-02-23T22:46:45.666Z,6.70
2019-02-23T22:52:49.878Z,6.70
2019-02-23T22:58:54.177Z,6.50
2019-02-23T23:04:58.538Z,6.50
2019-02-23T23:11:02.801Z,6.50
2019-02-23T23:17:07.013Z,6.60
2019-02-23T23:23:11.289Z,6.50
2019-02-23T23:29:15.485Z,6.50
2019-02-23T23:35:19.877Z,6.40
2019-02-23T23:41:24.087Z,6.30
2019-02-23T23:47:28.350Z,6.20
2019-02-23T23:53:32.544Z,6.20
2019-02-23T23:59:36.781Z,5.90
